Have a Safe July 4th! 

Flight Track Log - Related Links

Times and Time Zones

All times are in EDT time to prevent confusion due to time zone crossing. See the FDX1570 flight status page for this flight to view local times or setup timezone preferences in your user account.

Time Position Orientation Groundspeed Altitude Reporting Facility
EDT Latitude Longitude Course Direction KTS MPH feet Rate Location/Type
Wed 04:15:41 AM 35.0167 -89.9667 180° South 169 194 1,000  Level KMEM
Wed 04:16:13 AM 35.0000 -89.9667 180° South 171 197 2,200 2,067 Climbing KMEM
Wed 04:17:11 AM 34.9333 -89.9500 168° South 261 300 4,100 2,468 Climbing KMEM
Wed 04:18:17 AM 34.9167 -89.8500 101° East 276 318 7,300 2,971 Climbing KMEM
Wed 04:18:56 AM 34.9497 -89.7947 54° Northeast 278 320 9,300 2,545 Climbing Memphis Center
Wed 04:19:56 AM 34.9911 -89.7108 59° Northeast 347 399 11,500 1,750 Climbing Memphis Center
Wed 04:20:56 AM 35.0342 -89.5989 65° Northeast 347 399 12,800 1,800 Climbing Memphis Center
Wed 04:21:56 AM 35.0878 -89.4817 61° Northeast 365 420 15,100 2,100 Climbing Memphis Center
Wed 04:22:56 AM 35.1431 -89.3592 61° Northeast 400 460 17,000 1,900 Climbing Memphis Center
Wed 04:23:56 AM 35.2003 -89.2289 62° Northeast 421 484 18,900 1,750 Climbing Memphis Center
Wed 04:24:56 AM 35.2514 -89.1164 61° Northeast 421 484 20,500 1,050 Climbing Memphis Center
Wed 04:25:56 AM 35.3189 -88.9881 57° Northeast 436 502 21,000 300 Climbing Memphis Center
Wed 04:26:56 AM 35.3842 -88.8597 58° Northeast 436 502 21,100 1,102 Climbing Memphis Center
Wed 04:33:17 AM 35.8270 -87.9930 58° Northeast 482 555 29,100 1,338 Climbing FlightAware ADS-B
Wed 04:34:02 AM 35.8780 -87.8930 58° Northeast 478 550 30,600 1,906 Climbing FlightAware ADS-B
Wed 04:34:42 AM 35.9240 -87.8030 58° Northeast 476 548 31,800 1,875 Climbing FlightAware ADS-B
Wed 04:35:22 AM 35.9710 -87.7090 58° Northeast 472 543 33,100 1,976 Climbing FlightAware ADS-B
Wed 04:36:07 AM 36.0230 -87.6040 58° Northeast 463 533 34,600 1,835 Climbing FlightAware ADS-B
Wed 04:36:47 AM 36.0680 -87.5120 59° Northeast 460 529 35,700 1,271 Climbing FlightAware ADS-B
Wed 04:37:32 AM 36.1170 -87.4150 58° Northeast 466 536 36,400 918 Climbing FlightAware ADS-B
Wed 04:38:12 AM 36.1630 -87.3210 59° Northeast 470 541 37,000 450 Climbing FlightAware ADS-B
Wed 04:38:52 AM 36.2070 -87.2320 58° Northeast 465 535 37,000  Level FlightAware ADS-B
Wed 04:39:32 AM 36.2520 -87.1410 58° Northeast 469 540 37,000  Level FlightAware ADS-B
Wed 04:40:17 AM 36.3050 -87.0320 59° Northeast 472 543 37,000  Level FlightAware ADS-B
Wed 04:40:57 AM 36.3500 -86.9420 58° Northeast 474 545 37,000  Level FlightAware ADS-B
Wed 04:41:42 AM 36.4000 -86.8390 59° Northeast 475 547 37,000  Level FlightAware ADS-B
Wed 04:42:22 AM 36.4460 -86.7440 59° Northeast 475 547 37,000  Level FlightAware ADS-B
Wed 04:43:07 AM 36.4970 -86.6380 59° Northeast 475 547 37,000  Level FlightAware ADS-B
Wed 04:43:47 AM 36.5420 -86.5450 59° Northeast 476 548 37,000  Level FlightAware ADS-B
Wed 04:43:51 AM 36.5489 -86.5305 59° Northeast 477 549 37,000  Level FlightAware ADS-B
Wed 04:44:24 AM 36.5863 -86.4528 59° Northeast 478 550 37,000  Level FlightAware ADS-B
Wed 04:45:12 AM 36.6390 -86.3440 59° Northeast 477 549 37,000  Level FlightAware ADS-B
Wed 04:45:47 AM 36.6760 -86.2670 59° Northeast 473 544 37,000  Level FlightAware ADS-B
Wed 04:46:24 AM 36.7215 -86.1715 59° Northeast 470 541 37,000  Level FlightAware ADS-B
Wed 04:46:55 AM 36.7555 -86.1002 59° Northeast 462 532 37,000  Level FlightAware ADS-B
Wed 04:47:30 AM 36.7929 -86.0207 60° Northeast 456 525 37,000  Level FlightAware ADS-B
Wed 04:48:01 AM 36.8258 -85.9531 59° Northeast 453 521 37,000  Level FlightAware ADS-B
Wed 04:48:31 AM 36.8579 -85.8835 60° Northeast 451 519 37,000  Level FlightAware ADS-B
Wed 04:49:02 AM 36.8904 -85.8165 59° Northeast 449 517 37,000  Level FlightAware ADS-B
Wed 04:49:34 AM 36.9247 -85.7430 60° Northeast 447 514 37,000  Level FlightAware ADS-B
Wed 04:50:12 AM 36.9644 -85.6584 60° Northeast 446 513 37,000  Level FlightAware ADS-B
Wed 04:50:47 AM 36.9990 -85.5850 59° Northeast 445 512 37,000  Level FlightAware ADS-B
Wed 04:51:05 AM 37.0195 -85.5407 60° Northeast 445 512 37,000  Level FlightAware ADS-B
Wed 04:51:36 AM 37.0515 -85.4721 60° Northeast 445 512 37,000  Level FlightAware ADS-B
Wed 04:52:06 AM 37.0827 -85.4053 60° Northeast 445 512 37,000  Level FlightAware ADS-B
Wed 04:52:52 AM 37.1280 -85.3070 60° Northeast 445 512 37,000  Level FlightAware ADS-B
Wed 04:53:26 AM 37.1654 -85.2294 59° Northeast 446 513 37,000  Level FlightAware ADS-B
Wed 04:53:56 AM 37.1965 -85.1599 61° Northeast 446 513 37,000  Level FlightAware ADS-B
Wed 04:54:27 AM 37.2289 -85.0905 60° Northeast 447 514 37,000  Level FlightAware ADS-B
Wed 04:54:58 AM 37.2606 -85.0231 59° Northeast 449 517 37,000  Level FlightAware ADS-B
Wed 04:55:12 AM 37.2762 -84.9896 60° Northeast 449 517 37,000  Level FlightAware ADS-B
Wed 04:55:42 AM 37.3070 -84.9280 58° Northeast 449 517 37,000  Level FlightAware ADS-B
Wed 04:55:45 AM 37.3128 -84.9196 49° Northeast 450 518 37,000  Level FlightAware ADS-B
Wed 04:56:15 AM 37.3488 -84.8532 56° Northeast 451 519 37,000  Level FlightAware ADS-B
Wed 04:57:07 AM 37.4110 -84.7460 54° Northeast 454 522 37,000  Level FlightAware ADS-B
Wed 04:57:10 AM 37.4161 -84.7380 51° Northeast 455 524 37,000  Level FlightAware ADS-B
Wed 04:57:40 AM 37.4542 -84.6716 54° Northeast 456 525 37,000  Level FlightAware ADS-B
Wed 04:58:32 AM 37.5080 -84.5790 54° Northeast 456 525 37,000  Level FlightAware ADS-B
Wed 04:58:37 AM 37.5251 -84.5488 54° Northeast 458 527 37,000  Level FlightAware ADS-B
Wed 04:59:08 AM 37.5631 -84.4817 54° Northeast 459 528 37,000  Level FlightAware ADS-B
Wed 04:59:45 AM 37.6090 -84.4011 54° Northeast 460 529 37,000  Level FlightAware ADS-B
Wed 05:00:15 AM 37.6463 -84.3355 54° Northeast 462 532 37,000  Level FlightAware ADS-B
Wed 05:00:47 AM 37.6860 -84.2654 54° Northeast 460 529 37,000  Level FlightAware ADS-B
Wed 05:01:19 AM 37.7252 -84.1955 55° Northeast 458 527 37,000  Level FlightAware ADS-B
Wed 05:01:49 AM 37.7626 -84.1301 54° Northeast 458 527 37,000  Level FlightAware ADS-B
Wed 05:02:20 AM 37.8004 -84.0625 55° Northeast 458 527 37,000  Level FlightAware ADS-B
Wed 05:03:22 AM 37.8700 -83.9400 54° Northeast 460 529 37,000  Level FlightAware ADS-B
Wed 05:04:07 AM 37.9260 -83.8390 55° Northeast 458 527 37,000  Level FlightAware ADS-B
Wed 05:04:47 AM 37.9780 -83.7450 55° Northeast 454 522 37,000  Level FlightAware ADS-B
Wed 05:05:42 AM 38.0420 -83.6310 54° Northeast 453 521 37,000  Level FlightAware ADS-B
Wed 05:06:22 AM 38.0840 -83.5580 54° Northeast 453 521 37,000  Level FlightAware ADS-B
Wed 05:07:02 AM 38.1260 -83.4840 54° Northeast 453 521 37,000  Level FlightAware ADS-B
Wed 05:07:47 AM 38.1930 -83.3590 56° Northeast 451 519 37,000  Level FlightAware ADS-B
Wed 05:08:27 AM 38.2370 -83.2770 56° Northeast 450 518 37,000  Level FlightAware ADS-B
Wed 05:09:07 AM 38.2780 -83.2040 54° Northeast 450 518 37,000  Level FlightAware ADS-B
Wed 05:09:47 AM 38.3190 -83.1300 55° Northeast 450 518 37,000  Level FlightAware ADS-B
Wed 05:10:37 AM 38.3690 -83.0370 56° Northeast 450 518 37,000  Level FlightAware ADS-B
Wed 05:11:17 AM 38.4100 -82.9630 55° Northeast 450 518 37,000  Level FlightAware ADS-B
Wed 05:12:02 AM 38.4950 -82.8050 55° Northeast 442 509 37,000  Level FlightAware ADS-B
Wed 05:12:57 AM 38.5540 -82.6940 56° Northeast 441 507 37,000  Level FlightAware ADS-B
Wed 05:13:42 AM 38.6090 -82.5920 55° Northeast 444 511 37,000  Level FlightAware ADS-B
Wed 05:14:22 AM 38.6570 -82.5030 55° Northeast 448 516 37,000  Level FlightAware ADS-B
Wed 05:15:02 AM 38.7030 -82.4170 56° Northeast 451 519 37,000  Level FlightAware ADS-B
Wed 05:15:47 AM 38.7560 -82.3180 56° Northeast 452 520 37,000  Level FlightAware ADS-B
Wed 05:16:27 AM 38.8040 -82.2290 55° Northeast 454 522 37,000  Level FlightAware ADS-B
Wed 05:17:12 AM 38.8570 -82.1270 56° Northeast 455 524 37,000  Level FlightAware ADS-B
Wed 05:17:47 AM 38.9000 -82.0460 56° Northeast 455 524 37,000  Level FlightAware ADS-B
Wed 05:18:32 AM 38.9510 -81.9500 56° Northeast 455 524 37,000  Level FlightAware ADS-B
Wed 05:19:17 AM 39.0060 -81.8440 56° Northeast 454 522 37,000  Level FlightAware ADS-B
Wed 05:19:57 AM 39.0530 -81.7570 55° Northeast 452 520 37,000  Level FlightAware ADS-B
Wed 05:20:37 AM 39.1000 -81.6660 56° Northeast 451 519 37,000  Level FlightAware ADS-B
Wed 05:21:22 AM 39.1470 -81.5750 56° Northeast 449 517 37,000  Level FlightAware ADS-B
Wed 05:22:02 AM 39.1960 -81.4810 56° Northeast 448 516 37,000  Level FlightAware ADS-B
Wed 05:22:47 AM 39.2490 -81.3790 56° Northeast 449 517 37,000  Level FlightAware ADS-B
Wed 05:23:27 AM 39.2950 -81.2900 56° Northeast 450 518 37,000  Level FlightAware ADS-B
Wed 05:24:07 AM 39.3410 -81.2010 56° Northeast 450 518 37,000  Level FlightAware ADS-B
Wed 05:24:52 AM 39.3930 -81.1020 56° Northeast 449 517 37,000  Level FlightAware ADS-B
Wed 05:25:32 AM 39.4370 -81.0150 57° Northeast 449 517 37,000  Level FlightAware ADS-B
Wed 05:26:17 AM 39.4900 -80.9090 57° Northeast 449 517 37,000  Level FlightAware ADS-B
Wed 05:26:57 AM 39.5360 -80.8190 56° Northeast 449 517 37,000  Level FlightAware ADS-B
Wed 05:27:37 AM 39.5810 -80.7320 56° Northeast 449 517 37,000  Level FlightAware ADS-B
Wed 05:28:22 AM 39.6340 -80.6260 57° Northeast 449 517 37,000  Level FlightAware ADS-B
Wed 05:29:02 AM 39.6800 -80.5360 56° Northeast 450 518 37,000  Level FlightAware ADS-B
Wed 05:29:47 AM 39.7300 -80.4360 57° Northeast 450 518 37,000  Level FlightAware ADS-B
Wed 05:30:22 AM 39.6650 -80.5650 237° Southwest 37,000  Level FlightAware ADS-B
Wed 05:31:02 AM 39.8130 -80.2700 57° Northeast 454 522 37,000  Level FlightAware ADS-B
Wed 05:31:47 AM 39.8610 -80.1740 57° Northeast 457 526 37,000  Level FlightAware ADS-B
Wed 05:32:32 AM 39.9150 -80.0650 57° Northeast 458 527 37,000  Level FlightAware ADS-B
Wed 05:33:12 AM 39.9630 -79.9680 57° Northeast 458 527 37,000  Level FlightAware ADS-B
Wed 05:33:57 AM 40.0150 -79.8630 57° Northeast 459 528 37,000  Level FlightAware ADS-B
Wed 05:34:37 AM 40.0610 -79.7700 57° Northeast 460 529 37,000  Level FlightAware ADS-B
Wed 05:35:17 AM 40.1070 -79.6760 57° Northeast 460 529 37,000  Level FlightAware ADS-B
Wed 05:36:02 AM 40.1580 -79.5730 57° Northeast 457 526 37,000  Level FlightAware ADS-B
Wed 05:36:42 AM 40.2040 -79.4780 58° Northeast 456 525 37,000  Level FlightAware ADS-B
Wed 05:37:27 AM 40.2550 -79.3730 58° Northeast 455 524 37,000  Level FlightAware ADS-B
Wed 05:38:07 AM 40.3000 -79.2800 58° Northeast 454 522 37,000  Level FlightAware ADS-B
Wed 05:39:02 AM 40.3610 -79.1530 58° Northeast 451 519 37,000  Level FlightAware ADS-B
Wed 05:39:47 AM 40.4120 -79.0490 57° Northeast 451 519 37,000  Level FlightAware ADS-B
Wed 05:40:27 AM 40.4560 -78.9560 58° Northeast 451 519 37,000  Level FlightAware ADS-B
Wed 05:41:07 AM 40.5010 -78.8630 58° Northeast 451 519 37,000  Level FlightAware ADS-B
Wed 05:41:52 AM 40.5500 -78.7590 58° Northeast 452 520 37,000  Level FlightAware ADS-B
Wed 05:42:32 AM 40.5860 -78.6840 58° Northeast 452 520 37,000  Level FlightAware ADS-B
Wed 05:43:17 AM 40.6380 -78.5750 58° Northeast 452 520 37,000  Level FlightAware ADS-B
Wed 05:43:46 AM 40.6803 -78.4857 58° Northeast 453 521 37,000  Level FlightAware ADS-B
Wed 05:44:37 AM 40.7270 -78.3850 59° Northeast 453 521 37,000  Level FlightAware ADS-B
Wed 05:44:58 AM 40.7592 -78.3167 58° Northeast 453 521 37,000  Level FlightAware ADS-B
Wed 05:46:02 AM 40.8210 -78.1850 58° Northeast 455 524 37,000  Level FlightAware ADS-B
Wed 05:46:47 AM 40.8700 -78.0780 59° Northeast 453 521 37,000  Level FlightAware ADS-B
Wed 05:47:27 AM 40.9130 -77.9900 57° Northeast 453 521 37,000  Level FlightAware ADS-B
Wed 05:48:07 AM 40.9640 -77.8970 54° Northeast 452 520 37,000  Level FlightAware ADS-B
Wed 05:48:52 AM 41.0210 -77.8010 52° Northeast 452 520 37,000 -71 Level FlightAware ADS-B
Wed 05:49:32 AM 41.0730 -77.7120 52° Northeast 450 518 36,900 -590 Descending FlightAware ADS-B
Wed 05:49:53 AM 41.1114 -77.6471 52° Northeast 452 520 36,400 -1,333 Descending FlightAware ADS-B
Wed 05:50:26 AM 41.1539 -77.5768 51° Northeast 455 524 35,700 -1,114 Descending FlightAware ADS-B
Wed 05:51:03 AM 41.2015 -77.4951 52° Northeast 453 521 35,100 -1,500 Descending FlightAware ADS-B
Wed 05:51:42 AM 41.2522 -77.4078 52° Northeast 453 521 33,800 -1,747 Descending FlightAware ADS-B
Wed 05:52:22 AM 41.2890 -77.3440 52° Northeast 431 496 32,800 -1,973 Descending FlightAware ADS-B
Wed 05:52:55 AM 41.3404 -77.2551 52° Northeast 453 521 31,400 -2,273 Descending FlightAware ADS-B
Wed 05:53:28 AM 41.3792 -77.1866 53° Northeast 424 488 30,300 -1,565 Descending FlightAware ADS-B
Wed 05:54:27 AM 41.4410 -77.0790 53° Northeast 441 507 29,000 -788 Descending FlightAware ADS-B
Wed 05:55:07 AM 41.4910 -76.9930 52° Northeast 451 519 29,000  Level FlightAware ADS-B
Wed 05:55:42 AM 41.5469 -76.8950 53° Northeast 457 526 29,000 -212 Level FlightAware ADS-B
Wed 05:56:32 AM 41.5990 -76.8030 53° Northeast 454 522 28,700 -800 Descending FlightAware ADS-B
Wed 05:57:12 AM 41.6619 -76.6931 53° Northeast 455 524 27,800 -1,129 Descending FlightAware ADS-B
Wed 05:57:57 AM 41.7080 -76.6110 53° Northeast 462 532 27,100 -1,238 Descending FlightAware ADS-B
Wed 05:58:15 AM 41.7427 -76.5491 53° Northeast 468 539 26,500 -1,527 Descending FlightAware ADS-B
Wed 05:58:52 AM 41.7820 -76.4820 52° Northeast 472 543 25,700 -2,105 Descending FlightAware ADS-B
Wed 05:59:12 AM 41.8187 -76.4155 53° Northeast 479 551 24,500 -971 Descending FlightAware ADS-B
Wed 06:00:37 AM 41.9160 -76.2420 53° Northeast 477 549 24,000 -222 Descending FlightAware ADS-B
Wed 06:01:27 AM 41.9830 -76.1230 53° Northeast 457 526 24,000  Level FlightAware ADS-B
Wed 06:02:07 AM 42.0270 -76.0450 53° Northeast 457 526 24,000  Level FlightAware ADS-B
Wed 06:02:47 AM 42.0700 -75.9670 53° Northeast 457 526 24,000  Level FlightAware ADS-B
Wed 06:03:37 AM 42.1240 -75.8710 53° Northeast 457 526 24,000  Level FlightAware ADS-B
Wed 06:04:17 AM 42.1670 -75.7930 53° Northeast 457 526 24,000  Level FlightAware ADS-B
Wed 06:04:52 AM 42.2260 -75.6300 64° Northeast 443 510 24,000  Level FlightAware ADS-B
Wed 06:05:42 AM 42.2640 -75.5020 68° East 442 509 24,000  Level FlightAware ADS-B
Wed 06:06:22 AM 42.2930 -75.3990 69° East 444 511 24,000 -1,011 Level FlightAware ADS-B
Wed 06:07:17 AM 42.3320 -75.2590 69° East 440 506 22,400 -1,067 Descending FlightAware ADS-B
Wed 06:07:52 AM 42.3560 -75.1760 69° East 440 506 22,400  Level FlightAware ADS-B
Wed 06:08:42 AM 42.3870 -75.0670 69° East 440 506 22,400  Level FlightAware ADS-B
Wed 06:09:22 AM 42.4120 -74.9790 69° East 440 506 22,400  Level FlightAware ADS-B
Wed 06:10:02 AM 42.4360 -74.8920 69° East 440 506 22,400  Level FlightAware ADS-B
Wed 06:10:52 AM 42.4670 -74.7820 69° East 440 506 22,400 -8,494 Level FlightAware ADS-B
Wed 06:11:19 AM 42.4931 -74.6786 69° East 376 433 11,500 -11,288 Descending Boston Center
Wed 06:11:51 AM 42.5131 -74.6117 68° East 366 421 11,300 -400 Descending Boston Center
Wed 06:12:19 AM 42.5267 -74.5586 71° East 301 346 11,100 -300 Descending Boston Center
Wed 06:12:51 AM 42.5422 -74.5056 68° East 322 371 11,000 -885 Descending Boston Center
Wed 06:13:20 AM 42.5533 -74.4611 71° East 271 312 10,200 -1,700 Descending Boston Center
Wed 06:13:51 AM 42.5689 -74.4050 69° East 281 323 9,300 -1,500 Descending Boston Center
Wed 06:14:20 AM 42.5822 -74.3603 68° East 278 320 8,700 -1,200 Descending Boston Center
Wed 06:14:51 AM 42.5956 -74.3100 70° East 275 316 8,100 -1,279 Descending Boston Center
Wed 06:15:21 AM 42.6086 -74.2653 68° East 276 318 7,400 -1,500 Descending Boston Center
Wed 06:15:51 AM 42.6219 -74.2150 70° East 264 304 6,600 -1,377 Descending Boston Center
Wed 06:16:22 AM 42.6353 -74.1672 69° East 267 307 6,000 -1,300 Descending Boston Center
Wed 06:16:51 AM 42.6589 -74.1283 50° Northeast 264 304 5,300 -1,500 Descending Boston Center
Wed 06:17:22 AM 42.6883 -74.0953 40° Northeast 277 319 4,500 -1,200 Descending Boston Center
Wed 06:17:51 AM 42.7117 -74.0678 41° Northeast 264 304 4,100 -492 Descending Boston Center
Wed 06:18:23 AM 42.7458 -74.0261 42° Northeast 274 315 4,000 -200 Descending Boston Center
Wed 06:18:51 AM 42.7669 -74.0014 41° Northeast 264 304 3,900 -787 Descending Boston Center
Wed 06:19:24 AM 42.8008 -73.9597 42° Northeast 265 305 3,200 -1,200 Descending Boston Center
Wed 06:19:51 AM 42.8242 -73.9347 38° Northeast 264 304 2,700 -700 Descending Boston Center
Wed 06:20:24 AM 42.8539 -73.8931 46° Northeast 251 289 2,500 -200 Descending Boston Center
Wed 06:20:51 AM 42.8811 -73.8653 37° Northeast 264 304 2,500 -590 Level Boston Center
Wed 06:21:25 AM 42.8528 -73.8164 128° Southeast 188 216 1,900 -766 Descending Boston Center
Wed 06:22:25 AM 42.8131 -73.8100 173° South 124 143 1,300 -595 Descending Boston Center
Wed 06:23:26 AM 42.7778 -73.8092 179° South 117 135 700 -590 Descending Boston Center
Wed 06:26:00 AM 42.7491 -73.8020 165° South  Level Estimated

Login

Don't have an account? Register now (free) for customized features, flight alerts, and more!